createdAt,value
2023-02-28T09:52:30.248Z,12.97
2023-02-28T09:55:03.957Z,13.95
2023-02-28T09:57:40.172Z,13.70
2023-02-28T10:00:19.588Z,13.93
2023-02-28T10:03:19.504Z,13.16
2023-02-28T10:05:55.544Z,14.07
2023-02-28T10:08:30.944Z,14.16
2023-02-28T10:11:02.692Z,14.87
2023-02-28T10:13:38.858Z,14.97
2023-02-28T10:16:13.705Z,14.45
2023-02-28T10:18:48.263Z,14.31
2023-02-28T10:21:23.315Z,14.34
2023-02-28T10:24:06.667Z,14.72
2023-02-28T10:26:36.240Z,15.60
2023-02-28T10:29:06.115Z,16.22
2023-02-28T10:31:36.141Z,15.55
2023-02-28T10:34:07.279Z,17.37
2023-02-28T10:36:36.819Z,17.95
2023-02-28T10:39:38.691Z,18.92
2023-02-28T10:42:21.157Z,19.91
2023-02-28T10:44:50.526Z,22.27
2023-02-28T10:47:21.877Z,20.21
2023-02-28T10:49:54.098Z,22.98
2023-02-28T10:52:38.618Z,22.35
2023-02-28T10:55:23.186Z,22.45
2023-02-28T10:57:53.545Z,21.47
2023-02-28T11:00:26.460Z,22.86
2023-02-28T11:02:56.192Z,25.72
2023-02-28T11:05:29.721Z,25.95
2023-02-28T11:08:07.231Z,25.35
2023-02-28T11:10:38.398Z,24.93
2023-02-28T11:13:08.486Z,24.38
2023-02-28T11:15:38.331Z,24.60
2023-02-28T11:18:23.724Z,27.87
2023-02-28T11:20:55.288Z,26.49
2023-02-28T11:23:29.286Z,27.55
2023-02-28T11:26:03.127Z,28.82
2023-02-28T11:28:33.633Z,28.96
2023-02-28T11:31:07.786Z,29.23
2023-02-28T11:33:46.199Z,29.34
2023-02-28T11:36:20.245Z,28.85
2023-02-28T11:38:51.654Z,29.79
2023-02-28T11:41:45.485Z,27.69
2023-02-28T11:44:34.593Z,27.28
2023-02-28T11:47:10.292Z,28.80
2023-02-28T11:49:49.554Z,26.89
2023-02-28T11:52:31.714Z,27.81
2023-02-28T11:55:10.273Z,26.12
2023-02-28T11:57:55.571Z,29.46
2023-02-28T12:00:41.325Z,29.93
2023-02-28T12:03:28.735Z,29.78
2023-02-28T12:06:11.361Z,26.80
2023-02-28T12:08:53.688Z,26.35
2023-02-28T12:11:35.249Z,28.58
2023-02-28T12:14:35.249Z,28.55
2023-02-28T12:17:17.072Z,26.80
2023-02-28T12:19:56.246Z,25.66
2023-02-28T12:22:32.973Z,27.75
2023-02-28T12:25:41.964Z,29.02
2023-02-28T12:28:14.368Z,27.96
2023-02-28T12:30:53.239Z,27.67
2023-02-28T12:33:26.996Z,29.39
2023-02-28T12:35:59.083Z,29.56
2023-02-28T12:38:31.865Z,29.93
2023-02-28T12:41:05.280Z,27.70
2023-02-28T12:43:39.012Z,28.18
2023-02-28T12:46:15.633Z,27.13
2023-02-28T12:48:48.896Z,27.73
2023-02-28T12:51:19.921Z,28.43
2023-02-28T12:54:06.073Z,30.95
2023-02-28T12:56:46.981Z,31.14
2023-02-28T12:59:25.096Z,29.40
2023-02-28T13:02:22.439Z,29.34
2023-02-28T13:05:27.453Z,28.29
2023-02-28T13:08:26.139Z,29.81
2023-02-28T13:10:56.352Z,28.35
2023-02-28T13:13:30.723Z,27.82
2023-02-28T13:16:06.512Z,27.90
2023-02-28T13:18:40.671Z,27.96
2023-02-28T13:21:23.764Z,28.93
2023-02-28T13:24:02.262Z,28.10
2023-02-28T13:27:10.542Z,28.83
2023-02-28T13:29:41.547Z,27.28
2023-02-28T13:32:37.680Z,28.34
2023-02-28T13:35:46.127Z,29.37
2023-02-28T13:38:36.874Z,29.61
2023-02-28T13:41:43.536Z,28.89
2023-02-28T13:44:15.705Z,28.38
2023-02-28T13:47:23.332Z,28.39
2023-02-28T13:49:54.393Z,29.29
2023-02-28T13:52:27.290Z,28.38
2023-02-28T13:55:29.495Z,28.29
2023-02-28T13:58:25.068Z,28.17
2023-02-28T14:01:12.728Z,30.50
2023-02-28T14:04:09.731Z,31.02
2023-02-28T14:06:41.206Z,30.09
2023-02-28T14:09:26.091Z,28.12
2023-02-28T14:11:56.170Z,27.12
2023-02-28T14:15:02.010Z,29.48
2023-02-28T14:17:31.982Z,29.03
2023-02-28T14:20:01.858Z,28.02
2023-02-28T14:22:55.059Z,27.93
2023-02-28T14:25:35.147Z,28.39
2023-02-28T14:28:16.149Z,26.57
2023-02-28T14:31:02.968Z,27.70
2023-02-28T14:33:49.755Z,26.38
2023-02-28T14:36:27.507Z,28.82
2023-02-28T14:39:00.323Z,27.72
2023-02-28T14:41:36.568Z,26.54
2023-02-28T14:44:17.021Z,24.67
2023-02-28T14:46:48.315Z,25.13
2023-02-28T14:49:22.996Z,25.52
2023-02-28T14:52:06.986Z,25.38
2023-02-28T14:54:36.730Z,25.02
2023-02-28T14:57:07.773Z,24.94
2023-02-28T14:59:38.723Z,23.44
2023-02-28T15:02:22.672Z,22.97
2023-02-28T15:05:00.381Z,20.77
2023-02-28T15:07:32.849Z,21.75
2023-02-28T15:10:19.840Z,23.42
2023-02-28T15:12:54.982Z,23.95
2023-02-28T15:15:31.944Z,23.29
2023-02-28T15:18:16.326Z,22.34
2023-02-28T15:20:47.569Z,24.32
2023-02-28T15:23:18.069Z,24.35
2023-02-28T15:25:48.141Z,21.63
2023-02-28T15:28:22.330Z,24.16
2023-02-28T15:31:01.105Z,23.47
2023-02-28T15:33:32.290Z,22.01
2023-02-28T15:36:18.643Z,21.72
2023-02-28T15:38:55.080Z,20.90
2023-02-28T15:41:29.629Z,21.34
2023-02-28T15:44:27.941Z,20.67
2023-02-28T15:47:02.499Z,19.15
2023-02-28T15:49:42.737Z,18.45
2023-02-28T15:52:20.398Z,18.46
2023-02-28T15:54:49.850Z,16.86
2023-02-28T15:57:24.278Z,16.72
2023-02-28T15:59:58.247Z,16.10
2023-02-28T16:02:35.195Z,15.83
2023-02-28T16:05:28.973Z,14.93
2023-02-28T16:07:59.890Z,14.94
2023-02-28T16:10:31.099Z,13.86
2023-02-28T16:13:00.949Z,13.80
2023-02-28T16:15:35.130Z,13.86
2023-02-28T16:18:05.009Z,13.01
2023-02-28T16:20:34.602Z,13.04
2023-02-28T16:23:04.255Z,13.67
2023-02-28T16:25:40.726Z,13.59
2023-02-28T16:28:17.873Z,12.97
2023-02-28T16:30:48.877Z,13.16
2023-02-28T16:33:18.745Z,13.11
2023-02-28T16:35:48.017Z,12.56
2023-02-28T16:38:17.624Z,12.73
2023-02-28T16:40:47.609Z,12.89
2023-02-28T16:43:22.222Z,12.43
2023-02-28T16:46:01.201Z,12.22
2023-02-28T16:48:31.808Z,12.17
2023-02-28T16:51:01.169Z,11.92
2023-02-28T16:53:30.725Z,11.77
2023-02-28T16:56:02.973Z,11.45
2023-02-28T16:58:32.811Z,11.34
2023-02-28T17:01:03.471Z,11.22
2023-02-28T17:03:34.228Z,11.37
2023-02-28T17:06:03.748Z,11.29
2023-02-28T17:08:34.259Z,11.03
2023-02-28T17:11:03.808Z,11.02
2023-02-28T17:13:35.522Z,11.05
2023-02-28T17:16:06.912Z,11.30
2023-02-28T17:18:37.492Z,10.95
2023-02-28T17:21:11.852Z,10.88
2023-02-28T17:23:41.754Z,10.88
2023-02-28T17:26:15.690Z,10.90
2023-02-28T17:28:45.599Z,10.71
2023-02-28T17:31:18.590Z,10.37
2023-02-28T17:33:48.222Z,10.22
2023-02-28T17:36:19.973Z,10.43
2023-02-28T17:38:50.001Z,10.40
2023-02-28T17:41:19.224Z,10.45
2023-02-28T17:43:48.917Z,10.37
2023-02-28T17:46:21.724Z,10.25
2023-02-28T17:48:52.347Z,10.06
2023-02-28T17:51:24.840Z,9.95
2023-02-28T17:53:54.752Z,9.61
2023-02-28T17:56:25.959Z,9.83
2023-02-28T17:58:57.045Z,9.71
2023-02-28T18:01:28.496Z,9.75
2023-02-28T18:03:58.563Z,9.55
2023-02-28T18:06:33.318Z,9.70
2023-02-28T18:09:03.220Z,9.33
2023-02-28T18:11:44.590Z,9.36
2023-02-28T18:14:14.390Z,9.34
2023-02-28T18:16:45.827Z,9.34
2023-02-28T18:19:17.790Z,9.34
2023-02-28T18:21:49.779Z,9.14
2023-02-28T18:24:20.674Z,9.19
2023-02-28T18:26:51.104Z,9.09
2023-02-28T18:29:23.157Z,9.37
2023-02-28T18:31:55.028Z,9.03
2023-02-28T18:34:26.146Z,9.24
2023-02-28T18:36:56.468Z,9.27
2023-02-28T18:39:26.852Z,9.22
2023-02-28T18:41:57.824Z,9.23
2023-02-28T18:44:27.667Z,9.26
2023-02-28T18:46:58.479Z,9.20
2023-02-28T18:49:28.226Z,9.21
2023-02-28T18:51:58.694Z,9.12
2023-02-28T18:54:28.682Z,8.92
2023-02-28T18:56:58.023Z,9.12
2023-02-28T18:59:28.345Z,9.00
2023-02-28T19:01:59.458Z,9.25
2023-02-28T19:04:29.138Z,9.09
2023-02-28T19:06:59.835Z,8.95
2023-02-28T19:09:32.970Z,8.82
2023-02-28T19:12:02.447Z,8.67
2023-02-28T19:14:32.480Z,8.86
2023-02-28T19:17:03.480Z,8.67
2023-02-28T19:19:33.195Z,8.71
2023-02-28T19:22:02.629Z,8.55
2023-02-28T19:24:32.415Z,8.91
2023-02-28T19:27:01.846Z,8.35
2023-02-28T19:29:31.477Z,8.24
2023-02-28T19:32:04.228Z,8.84
2023-02-28T19:34:34.792Z,8.05
2023-02-28T19:37:04.069Z,8.11
2023-02-28T19:39:41.272Z,8.25
2023-02-28T19:42:11.187Z,8.66
2023-02-28T19:44:41.479Z,8.50
2023-02-28T19:47:12.391Z,8.38
2023-02-28T19:49:42.462Z,8.16
2023-02-28T19:52:15.087Z,8.13
2023-02-28T19:54:45.306Z,8.04
2023-02-28T19:57:15.138Z,8.14
2023-02-28T19:59:45.710Z,8.39
2023-02-28T20:02:18.608Z,8.73
2023-02-28T20:04:50.011Z,8.38
2023-02-28T20:07:20.825Z,9.03
2023-02-28T20:09:51.050Z,8.96
2023-02-28T20:12:24.429Z,8.28
2023-02-28T20:14:56.142Z,8.25
2023-02-28T20:17:29.653Z,8.16
2023-02-28T20:19:59.359Z,7.94
2023-02-28T20:22:29.014Z,8.10
2023-02-28T20:24:58.663Z,8.28
2023-02-28T20:27:28.552Z,8.36
2023-02-28T20:29:58.344Z,8.72
2023-02-28T20:32:29.547Z,8.49
2023-02-28T20:34:59.239Z,8.36
2023-02-28T20:37:32.376Z,8.41
2023-02-28T20:40:04.467Z,8.74
2023-02-28T20:42:33.721Z,8.34
2023-02-28T20:45:03.578Z,8.72
2023-02-28T20:47:34.293Z,8.56
2023-02-28T20:50:03.903Z,8.78
2023-02-28T20:52:33.173Z,8.76
2023-02-28T20:55:02.891Z,9.06
2023-02-28T20:57:32.728Z,9.45
2023-02-28T21:00:02.447Z,9.38
2023-02-28T21:02:33.318Z,9.02
2023-02-28T21:05:03.224Z,8.93
2023-02-28T21:07:32.722Z,8.69
2023-02-28T21:10:02.639Z,9.06
2023-02-28T21:12:32.181Z,8.79
2023-02-28T21:15:01.941Z,8.61
2023-02-28T21:17:31.357Z,8.77
2023-02-28T21:20:02.405Z,8.98
2023-02-28T21:22:31.883Z,9.34
2023-02-28T21:25:01.433Z,9.48
2023-02-28T21:27:30.803Z,9.56
2023-02-28T21:30:00.394Z,9.31
2023-02-28T21:32:29.773Z,9.18
2023-02-28T21:34:59.321Z,9.34
2023-02-28T21:37:30.091Z,8.95
2023-02-28T21:39:59.664Z,9.42
2023-02-28T21:42:30.281Z,9.17
2023-02-28T21:45:01.069Z,9.71
2023-02-28T21:47:31.243Z,9.81
2023-02-28T21:50:00.885Z,9.73
2023-02-28T21:52:31.566Z,9.26
2023-02-28T21:55:01.228Z,9.67
2023-02-28T21:57:30.534Z,9.39
2023-02-28T22:00:00.306Z,8.92
2023-02-28T22:02:30.446Z,9.56
2023-02-28T22:05:03.606Z,9.17
2023-02-28T22:07:34.235Z,9.53
2023-02-28T22:10:04.098Z,9.43
2023-02-28T22:12:33.504Z,9.64
2023-02-28T22:15:03.014Z,9.40
2023-02-28T22:17:32.327Z,9.14
2023-02-28T22:20:01.845Z,9.25
2023-02-28T22:22:31.148Z,8.68
2023-02-28T22:25:02.084Z,9.18
2023-02-28T22:27:31.550Z,9.51
2023-02-28T22:30:01.622Z,9.31
2023-02-28T22:32:31.067Z,9.68
2023-02-28T22:35:00.824Z,9.13
2023-02-28T22:37:30.051Z,8.60
2023-02-28T22:40:01.128Z,8.64
2023-02-28T22:42:33.425Z,8.78
2023-02-28T22:45:03.188Z,8.58
2023-02-28T22:47:32.590Z,9.52
2023-02-28T22:50:02.324Z,9.23
2023-02-28T22:52:31.532Z,9.05
2023-02-28T22:55:02.827Z,9.05
2023-02-28T22:57:32.058Z,8.82
2023-02-28T23:00:02.266Z,8.55
2023-02-28T23:02:31.634Z,8.49
2023-02-28T23:05:01.237Z,9.30
2023-02-28T23:07:30.533Z,8.75
2023-02-28T23:10:01.526Z,9.04
2023-02-28T23:12:32.555Z,9.11
2023-02-28T23:15:02.308Z,9.61
2023-02-28T23:17:33.876Z,8.77
2023-02-28T23:20:04.037Z,9.10
2023-02-28T23:22:33.418Z,8.91
2023-02-28T23:25:04.846Z,8.82
2023-02-28T23:27:34.849Z,9.10
2023-02-28T23:30:04.814Z,8.80
2023-02-28T23:32:34.125Z,9.11
2023-02-28T23:35:03.794Z,9.23
2023-02-28T23:37:32.995Z,9.58
2023-02-28T23:40:04.572Z,9.53
2023-02-28T23:42:33.949Z,9.16
2023-02-28T23:45:03.688Z,9.05
2023-02-28T23:47:33.190Z,9.69
2023-02-28T23:50:03.083Z,9.79
2023-02-28T23:52:32.417Z,9.92
2023-02-28T23:55:03.554Z,9.81
2023-02-28T23:57:33.016Z,9.71
